Time;durP1;ratioP1;P1;durP2;ratioP2;P2;SDS_P1;SDS_P2;PMS_P1;PMS_P2;Temp;Humidity;BMP_temperature;BMP_pressure;BME280_temperature;BME280_humidity;BME280_pressure;Samples;Min_cycle;Max_cycle;Signal;HPM_P1;HPM_P2
2022/12/22 03:27:38;;;;;;;;;;;;;;;8.44;100.00;100138.78;4896434;29;19930;-64
2022/12/22 03:30:04;;;;;;;;;;;;;;;8.42;100.00;100146.41;4897037;29;19919;-65
2022/12/22 03:32:29;;;;;;;;;;;;;;;8.42;100.00;100143.69;4913503;29;19919;-65
2022/12/22 03:34:54;;;;;;;;;;;;;;;8.39;100.00;100136.75;4911516;29;19919;-65
2022/12/22 03:37:20;;;;;;;;;;;;;;;8.35;100.00;100132.78;4911794;29;19922;-66
2022/12/22 03:39:45;;;;;;;;;;;;;;;8.31;100.00;100124.22;4897393;29;19926;-65
2022/12/22 03:47:38;;;;;;;;;;;;;;;8.22;100.00;100117.41;4906642;29;19926;-63
2022/12/22 03:50:04;;;;;;;;;;;;;;;8.22;100.00;100120.16;4914365;29;19915;-65
2022/12/22 03:52:29;;;;;;;;;;;;;;;8.21;100.00;100123.97;4913611;29;20012;-65
2022/12/22 03:54:54;;;;;;;;;;;;;;;8.20;100.00;100114.06;4897023;29;20251;-65
2022/12/22 03:57:19;;;;;;;;;;;;;;;8.19;100.00;100117.88;4907168;29;19930;-65
2022/12/22 03:59:44;;;;;;;;;;;;;;;8.16;100.00;100114.75;4913715;29;19919;-65
2022/12/22 04:02:09;;;;;;;;;;;;;;;8.13;100.00;100105.13;4902926;29;20022;-65
2022/12/22 04:04:35;;;;;;;;;;;;;;;8.12;100.00;100099.91;4902415;29;19919;-65
2022/12/22 04:07:00;;;;;;;;;;;;;;;8.15;100.00;100107.63;4902334;29;19923;-66
2022/12/22 04:09:26;;;;;;;;;;;;;;;8.14;100.00;100100.47;4898169;29;19920;-65
2022/12/22 04:14:35;;;;;;;;;;;;;;;8.13;100.00;100091.44;4913550;29;19925;-65
2022/12/22 04:17:01;;;;;;;;;;;;;;;8.15;100.00;100094.78;4895158;29;20005;-64
2022/12/22 04:19:26;;;;;;;;;;;;;;;8.16;100.00;100085.53;4896481;29;19915;-64
2022/12/22 04:21:52;;;;;;;;;;;;;;;8.18;100.00;100083.38;4912481;29;19943;-65
2022/12/22 04:24:18;;;;;;;;;;;;;;;8.21;100.00;100084.78;4912862;29;20338;-65
2022/12/22 04:26:43;;;;;;;;;;;;;;;8.21;100.00;100093.88;4893615;29;19987;-65
2022/12/22 04:29:08;;;;;;;;;;;;;;;8.23;100.00;100093.63;4894559;29;19946;-65
2022/12/22 04:31:33;;;;;;;;;;;;;;;8.23;100.00;100110.88;4894768;29;20182;-65
2022/12/22 04:33:58;;;;;;;;;;;;;;;8.24;100.00;100107.06;4893641;29;19923;-65
2022/12/22 04:36:24;;;;;;;;;;;;;;;8.22;100.00;100114.69;4892399;29;19930;-65
2022/12/22 04:38:49;;;;;;;;;;;;;;;8.21;100.00;100123.97;4894443;29;19968;-63
2022/12/22 04:41:14;;;;;;;;;;;;;;;8.20;100.00;100119.53;4893458;29;19939;-65
2022/12/22 04:43:39;;;;;;;;;;;;;;;8.20;100.00;100115.97;4899506;29;19957;-65
2022/12/22 04:46:05;;;;;;;;;;;;;;;8.18;100.00;100110.72;4901836;29;19970;-65
2022/12/22 04:48:30;;;;;;;;;;;;;;;8.19;100.00;100114.28;4894275;29;19915;-65
2022/12/22 04:50:56;;;;;;;;;;;;;;;8.20;100.00;100111.31;4893936;29;20247;-63
2022/12/22 04:53:22;;;;;;;;;;;;;;;8.22;100.00;100111.94;4909676;29;20417;-65
2022/12/22 04:55:54;;;;;;;;;;;;;;;8.21;100.00;100110.28;4896125;29;19963;-64
2022/12/22 04:58:20;;;;;;;;;;;;;;;8.21;100.00;100110.28;4892170;29;19926;-63
2022/12/22 05:00:45;;;;;;;;;;;;;;;8.22;100.00;100117.41;4893194;29;19978;-64
2022/12/22 05:03:10;;;;;;;;;;;;;;;8.21;100.00;100121.22;4893225;29;19911;-64
2022/12/22 05:05:35;;;;;;;;;;;;;;;8.19;100.00;100123.34;4897223;29;19919;-64
2022/12/22 05:08:01;;;;;;;;;;;;;;;8.19;100.00;100114.28;4911673;29;20058;-65
2022/12/22 05:10:26;;;;;;;;;;;;;;;8.20;100.00;100116.78;4902925;29;20782;-65
2022/12/22 05:12:54;;;;;;;;;;;;;;;8.18;100.00;100116.19;4893008;29;19919;-62
2022/12/22 05:15:24;;;;;;;;;;;;;;;8.20;100.00;100111.31;4892375;29;19934;-65
2022/12/22 05:17:49;;;;;;;;;;;;;;;8.20;100.00;100116.78;4893452;29;20599;-65
2022/12/22 05:20:15;;;;;;;;;;;;;;;8.20;100.00;100114.06;4892481;29;19935;-64
2022/12/22 05:22:40;;;;;;;;;;;;;;;8.22;100.00;100111.09;4905777;29;19919;-65
2022/12/22 05:25:05;;;;;;;;;;;;;;;8.22;100.00;100122.06;4905252;29;19919;-65
2022/12/22 05:27:30;;;;;;;;;;;;;;;8.21;100.00;100125.81;4895331;29;20017;-65
2022/12/22 05:29:55;;;;;;;;;;;;;;;8.19;100.00;100128.81;4893990;29;20416;-64
2022/12/22 05:32:21;;;;;;;;;;;;;;;8.18;100.00;100127.13;4892285;29;20017;-65
2022/12/22 05:34:46;;;;;;;;;;;;;;;8.15;100.00;100138.53;4892350;29;20263;-65
2022/12/22 05:37:11;;;;;;;;;;;;;;;8.13;100.00;100135.22;4893782;29;20294;-65
2022/12/22 05:39:36;;;;;;;;;;;;;;;8.12;100.00;100129.97;4894615;29;19930;-66
2022/12/22 05:42:02;;;;;;;;;;;;;;;8.11;100.00;100131.88;4890826;29;19946;-62
2022/12/22 05:44:27;;;;;;;;;;;;;;;8.11;100.00;100134.63;4893877;29;20017;-65
2022/12/22 05:46:52;;;;;;;;;;;;;;;8.13;100.00;100132.47;4893657;29;19916;-65
2022/12/22 05:49:17;;;;;;;;;;;;;;;8.16;100.00;100136.63;4892452;29;19912;-65
2022/12/22 05:51:42;;;;;;;;;;;;;;;8.17;100.00;100143.78;4905041;29;19968;-65
2022/12/22 05:54:08;;;;;;;;;;;;;;;8.18;100.00;100161.88;4891733;29;19951;-64
2022/12/22 05:56:34;;;;;;;;;;;;;;;8.18;100.00;100159.97;4902388;29;19927;-65
2022/12/22 05:58:59;;;;;;;;;;;;;;;8.20;100.00;100163.28;4903418;29;20311;-65
2022/12/22 06:01:24;;;;;;;;;;;;;;;8.22;100.00;100161.19;4891410;29;19916;-65
2022/12/22 06:03:49;;;;;;;;;;;;;;;8.25;100.00;100176.28;4892465;29;20266;-64
2022/12/22 06:06:14;;;;;;;;;;;;;;;8.26;100.00;100175.22;4909140;29;20054;-65
2022/12/22 06:08:39;;;;;;;;;;;;;;;8.28;100.00;100176.66;4910684;29;19922;-65
2022/12/22 06:11:05;;;;;;;;;;;;;;;8.30;100.00;100185.44;4890439;29;19919;-65
2022/12/22 06:13:30;;;;;;;;;;;;;;;8.30;100.00;100190.94;4896019;29;20043;-66
2022/12/22 06:15:55;;;;;;;;;;;;;;;8.31;100.00;100192.63;4911853;29;19911;-65
2022/12/22 06:18:20;;;;;;;;;;;;;;;8.33;100.00;100182.25;4911890;29;19951;-66
2022/12/22 06:20:46;;;;;;;;;;;;;;;8.35;100.00;100198.44;4903860;29;20021;-65
2022/12/22 06:23:11;;;;;;;;;;;;;;;8.36;100.00;100200.13;4906924;29;19915;-65
2022/12/22 06:25:36;;;;;;;;;;;;;;;8.37;100.00;100196.34;4912848;29;20330;-65
2022/12/22 06:28:01;;;;;;;;;;;;;;;8.40;100.00;100203.25;4916106;29;19918;-64
2022/12/22 06:30:27;;;;;;;;;;;;;;;8.39;100.00;100191.47;4912513;29;19924;-65
2022/12/22 06:32:52;;;;;;;;;;;;;;;8.41;100.00;100196.72;4909046;29;19919;-65
2022/12/22 06:35:17;;;;;;;;;;;;;;;8.41;100.00;100213.13;4897203;29;20006;-65
2022/12/22 06:37:42;;;;;;;;;;;;;;;8.44;100.00;100215.41;4910299;29;20313;-65
2022/12/22 06:40:08;;;;;;;;;;;;;;;8.43;100.00;100228.25;4895962;29;19974;-64
2022/12/22 06:45:17;;;;;;;;;;;;;;;8.46;100.00;100232.41;4879629;29;20003;-66
2022/12/22 06:47:42;;;;;;;;;;;;;;;8.44;100.00;100234.56;4898292;29;19919;-66
2022/12/22 06:50:07;;;;;;;;;;;;;;;8.45;100.00;100241.69;4896387;29;20375;-65
2022/12/22 06:52:33;;;;;;;;;;;;;;;8.45;100.00;100237.06;4895200;29;19930;-65
2022/12/22 06:54:58;;;;;;;;;;;;;;;8.46;100.00;100237.91;4910399;29;20362;-66
2022/12/22 06:57:23;;;;;;;;;;;;;;;8.42;100.00;100248.50;4914418;29;20498;-66
2022/12/22 06:59:48;;;;;;;;;;;;;;;8.42;100.00;100259.44;4915806;29;20582;-66
2022/12/22 07:02:13;;;;;;;;;;;;;;;8.43;100.00;100266.56;4897756;29;20009;-66
2022/12/22 07:04:39;;;;;;;;;;;;;;;8.42;100.00;100259.44;4893642;29;20390;-66
2022/12/22 07:07:04;;;;;;;;;;;;;;;8.41;100.00;100274.16;4906051;29;19974;-63
2022/12/22 07:09:29;;;;;;;;;;;;;;;8.42;100.00;100280.50;4907056;29;19919;-66
2022/12/22 07:11:54;;;;;;;;;;;;;;;8.38;100.00;100282.84;4893984;29;19919;-66
2022/12/22 07:14:20;;;;;;;;;;;;;;;8.38;100.00;100288.31;4888530;29;19920;-66
2022/12/22 07:16:46;;;;;;;;;;;;;;;8.37;100.00;100294.88;4886229;29;19919;-66
2022/12/22 07:19:11;;;;;;;;;;;;;;;8.35;100.00;100290.63;4894878;29;19915;-66
2022/12/22 07:21:36;;;;;;;;;;;;;;;8.29;100.00;100290.50;4895372;29;19920;-66
2022/12/22 07:24:01;;;;;;;;;;;;;;;8.25;100.00;100292.00;4911636;29;19971;-66
2022/12/22 07:26:27;;;;;;;;;;;;;;;8.22;100.00;100292.47;4914066;29;20009;-66
2022/12/22 07:28:52;;;;;;;;;;;;;;;8.16;100.00;100285.19;4914922;29;19914;-65
2022/12/22 07:31:17;;;;;;;;;;;;;;;8.13;100.00;100288.38;4906087;29;19926;-65
2022/12/22 07:33:42;;;;;;;;;;;;;;;8.08;100.00;100290.97;4894261;29;19955;-65
2022/12/22 07:36:15;;;;;;;;;;;;;;;8.05;100.00;100294.13;4895872;29;20389;-65
2022/12/22 07:38:41;;;;;;;;;;;;;;;8.05;100.00;100299.63;4893051;29;20397;-66
2022/12/22 07:43:51;;;;;;;;;;;;;;;8.12;100.00;100311.34;4892230;29;20072;-65
2022/12/22 07:46:17;;;;;;;;;;;;;;;8.13;100.00;100315.72;4877457;29;20006;-65
2022/12/22 07:51:25;;;;;;;;;;;;;;;8.19;100.00;100339.44;4887776;29;19947;-66
2022/12/22 07:53:51;;;;;;;;;;;;;;;8.16;100.00;100339.91;4898584;29;19919;-65
2022/12/22 07:56:16;;;;;;;;;;;;;;;8.16;100.00;100336.31;4913801;29;19911;-65
2022/12/22 07:58:41;;;;;;;;;;;;;;;8.13;100.00;100353.19;4914379;29;19974;-65
2022/12/22 08:01:06;;;;;;;;;;;;;;;8.13;100.00;100367.69;4895531;29;19922;-65
2022/12/22 08:03:31;;;;;;;;;;;;;;;8.14;100.00;100376.75;4903635;29;20885;-65
2022/12/22 08:05:56;;;;;;;;;;;;;;;8.12;100.00;100376.97;4906752;29;19923;-65
2022/12/22 08:08:22;;;;;;;;;;;;;;;8.12;100.00;100385.19;4893955;29;20492;-65
2022/12/22 08:10:47;;;;;;;;;;;;;;;8.13;100.00;100392.31;4893611;29;19919;-65
2022/12/22 08:13:12;;;;;;;;;;;;;;;8.14;100.00;100402.19;4892872;29;19923;-65
2022/12/22 08:15:37;;;;;;;;;;;;;;;8.13;100.00;100400.53;4901716;29;19930;-65
2022/12/22 08:18:02;;;;;;;;;;;;;;;8.18;100.00;100397.13;4911092;29;20343;-65
2022/12/22 08:20:28;;;;;;;;;;;;;;;8.20;100.00;100404.00;4910463;29;20006;-65
2022/12/22 08:22:53;;;;;;;;;;;;;;;8.24;100.00;100402.50;4901044;29;19934;-64
2022/12/22 08:25:18;;;;;;;;;;;;;;;8.28;100.00;100397.44;4894560;29;19939;-66
2022/12/22 08:27:47;;;;;;;;;;;;;;;8.31;100.00;100389.63;4902728;29;19923;-65
2022/12/22 08:30:12;;;;;;;;;;;;;;;8.34;100.00;100404.72;4892632;29;19958;-65
2022/12/22 08:32:39;;;;;;;;;;;;;;;8.36;100.00;100410.81;4894606;29;19950;-65
2022/12/22 08:35:05;;;;;;;;;;;;;;;8.36;100.00;100409.97;4894903;29;19926;-65
2022/12/22 08:37:33;;;;;;;;;;;;;;;8.32;100.00;100417.81;4893840;29;20282;-65
2022/12/22 08:40:02;;;;;;;;;;;;;;;8.29;100.00;100432.75;4893515;29;20054;-65
2022/12/22 08:42:27;;;;;;;;;;;;;;;8.30;100.00;100441.81;4909498;29;19926;-65
2022/12/22 08:44:52;;;;;;;;;;;;;;;8.30;100.00;100452.75;4901141;29;20562;-65
2022/12/22 08:47:19;;;;;;;;;;;;;;;8.33;100.00;100458.63;4888663;29;19919;-64
2022/12/22 08:49:44;;;;;;;;;;;;;;;8.37;100.00;100461.78;4876196;29;19920;-64
2022/12/22 08:52:09;;;;;;;;;;;;;;;8.37;100.00;100470.00;4875529;29;19923;-64
2022/12/22 08:54:34;;;;;;;;;;;;;;;8.34;100.00;100470.41;4879553;29;19926;-64
2022/12/22 08:57:00;;;;;;;;;;;;;;;8.31;100.00;100485.38;4894109;29;20002;-64
2022/12/22 08:59:25;;;;;;;;;;;;;;;8.28;100.00;100494.03;4893942;29;20130;-64
2022/12/22 09:01:50;;;;;;;;;;;;;;;8.23;100.00;100491.13;4893899;29;19915;-64
2022/12/22 09:04:17;;;;;;;;;;;;;;;8.18;100.00;100493.69;4892419;29;19934;-64
2022/12/22 09:06:42;;;;;;;;;;;;;;;8.23;100.00;100495.75;4893292;29;19940;-64
2022/12/22 09:09:08;;;;;;;;;;;;;;;8.12;100.00;100494.59;4894060;29;20449;-64
2022/12/22 09:11:34;;;;;;;;;;;;;;;8.06;100.00;100506.44;4893292;29;19915;-64
2022/12/22 09:14:00;;;;;;;;;;;;;;;8.06;100.00;100503.69;4893935;29;19915;-63
2022/12/22 09:16:27;;;;;;;;;;;;;;;8.10;100.00;100507.63;4882344;29;19934;-65
2022/12/22 09:18:53;;;;;;;;;;;;;;;8.15;100.00;100515.19;4887037;29;19923;-63
2022/12/22 09:21:18;;;;;;;;;;;;;;;8.17;100.00;100515.81;4891023;29;19942;-64
2022/12/22 09:23:43;;;;;;;;;;;;;;;8.26;100.00;100509.84;4892192;29;20260;-65
2022/12/22 09:26:13;;;;;;;;;;;;;;;8.59;100.00;100519.66;4891707;29;20287;-64
2022/12/22 09:28:38;;;;;;;;;;;;;;;8.96;100.00;100516.94;4890951;29;19924;-62
2022/12/22 09:31:04;;;;;;;;;;;;;;;9.05;100.00;100526.53;4889904;29;20383;-63
2022/12/22 09:33:29;;;;;;;;;;;;;;;9.06;100.00;100530.94;4893882;29;19919;-65
2022/12/22 09:35:55;;;;;;;;;;;;;;;9.18;100.00;100531.03;4893336;29;19947;-65
2022/12/22 09:38:20;;;;;;;;;;;;;;;9.23;100.00;100528.44;4893490;29;20455;-65
2022/12/22 09:40:45;;;;;;;;;;;;;;;9.39;100.00;100524.22;4891533;29;19938;-64
2022/12/22 09:43:15;;;;;;;;;;;;;;;9.58;100.00;100521.22;4891576;29;20453;-65
2022/12/22 09:45:40;;;;;;;;;;;;;;;9.68;100.00;100525.28;4893746;29;19915;-65
2022/12/22 09:48:08;;;;;;;;;;;;;;;9.63;100.00;100536.97;4893478;29;19935;-65
2022/12/22 09:50:36;;;;;;;;;;;;;;;9.50;100.00;100531.66;4891981;29;19916;-64
2022/12/22 09:53:03;;;;;;;;;;;;;;;9.51;100.00;100536.91;4884910;29;20252;-65
2022/12/22 09:55:44;;;;;;;;;;;;;;;9.29;100.00;100539.31;4889144;29;19919;-65
2022/12/22 09:58:20;;;;;;;;;;;;;;;9.46;100.00;100549.63;4891901;29;19927;-65
2022/12/22 10:00:49;;;;;;;;;;;;;;;9.81;100.00;100550.63;4891829;29;19985;-65
2022/12/22 10:03:15;;;;;;;;;;;;;;;10.12;100.00;100554.19;4892640;29;19957;-65
2022/12/22 10:05:40;;;;;;;;;;;;;;;10.16;100.00;100544.41;4890065;29;19927;-65
2022/12/22 10:08:17;;;;;;;;;;;;;;;10.48;100.00;100544.97;4883877;29;19920;-65
2022/12/22 10:10:42;;;;;;;;;;;;;;;11.04;100.00;100550.91;4885776;29;19923;-63
2022/12/22 10:13:15;;;;;;;;;;;;;;;12.11;100.00;100561.34;4893132;29;19926;-65
2022/12/22 10:15:40;;;;;;;;;;;;;;;12.50;100.00;100564.22;4889771;29;19927;-65
2022/12/22 10:18:13;;;;;;;;;;;;;;;12.21;100.00;100564.28;4909775;29;20337;-66
2022/12/22 10:20:40;;;;;;;;;;;;;;;12.17;100.00;100566.72;4892986;29;19923;-66
2022/12/22 10:23:17;;;;;;;;;;;;;;;11.85;100.00;100563.63;4892028;29;20038;-65
2022/12/22 10:26:05;;;;;;;;;;;;;;;11.47;100.00;100566.97;4890711;29;19924;-65
2022/12/22 10:28:35;;;;;;;;;;;;;;;10.95;100.00;100575.19;4881952;29;19934;-64
2022/12/22 10:31:19;;;;;;;;;;;;;;;10.44;100.00;100573.13;4883871;29;19935;-65
2022/12/22 10:33:45;;;;;;;;;;;;;;;10.12;100.00;100579.72;4890236;29;19919;-65
2022/12/22 10:36:12;;;;;;;;;;;;;;;10.01;100.00;100574.19;4890068;29;19926;-65
2022/12/22 10:38:38;;;;;;;;;;;;;;;9.99;100.00;100579.09;4886455;29;19935;-64
2022/12/22 10:41:03;;;;;;;;;;;;;;;10.55;100.00;100577.81;4887173;29;19925;-65
2022/12/22 10:43:33;;;;;;;;;;;;;;;10.72;100.00;100581.50;4888371;29;20322;-65
2022/12/22 10:45:59;;;;;;;;;;;;;;;10.47;100.00;100578.16;4881268;29;19919;-65
2022/12/22 10:48:26;;;;;;;;;;;;;;;10.35;100.00;100583.63;4889734;29;20009;-62
2022/12/22 10:50:51;;;;;;;;;;;;;;;10.31;100.00;100579.69;4890625;29;19919;-65
2022/12/22 10:53:17;;;;;;;;;;;;;;;11.81;100.00;100575.31;4891458;29;19967;-66
2022/12/22 10:55:43;;;;;;;;;;;;;;;13.12;97.50;100573.16;4907183;29;19923;-65
2022/12/22 10:58:08;;;;;;;;;;;;;;;14.16;99.84;100572.22;4890229;29;20421;-64
2022/12/22 11:00:33;;;;;;;;;;;;;;;14.68;90.06;100574.38;4890435;29;19919;-66
2022/12/22 11:02:59;;;;;;;;;;;;;;;15.28;87.40;100583.34;4890883;29;20324;-65
2022/12/22 11:05:25;;;;;;;;;;;;;;;14.43;85.56;100583.25;4891439;29;19931;-65
2022/12/22 11:07:51;;;;;;;;;;;;;;;13.34;88.30;100580.69;4889531;29;19942;-64
2022/12/22 11:10:25;;;;;;;;;;;;;;;12.85;91.66;100591.50;4889337;29;20022;-66
2022/12/22 11:13:03;;;;;;;;;;;;;;;12.42;92.08;100593.03;4886516;29;19919;-65
2022/12/22 11:15:55;;;;;;;;;;;;;;;12.44;92.91;100601.88;4896147;29;19919;-66
2022/12/22 11:18:29;;;;;;;;;;;;;;;12.22;92.40;100603.69;4893105;29;20345;-64
2022/12/22 11:21:02;;;;;;;;;;;;;;;11.51;95.45;100600.34;4895225;29;19919;-65
2022/12/22 11:23:33;;;;;;;;;;;;;;;11.14;95.54;100609.69;4895151;29;20742;-65
2022/12/22 11:26:04;;;;;;;;;;;;;;;10.60;98.58;100608.97;4895324;29;20390;-65
2022/12/22 11:28:49;;;;;;;;;;;;;;;10.69;99.63;100612.19;4896322;29;20426;-65
2022/12/22 11:31:21;;;;;;;;;;;;;;;11.11;97.44;100607.44;4881070;29;19951;-65
2022/12/22 11:34:05;;;;;;;;;;;;;;;11.00;97.36;100607.44;4904136;29;20294;-65
2022/12/22 11:36:38;;;;;;;;;;;;;;;11.64;93.51;100611.03;4909109;29;20014;-65
2022/12/22 11:39:06;;;;;;;;;;;;;;;12.14;89.58;100610.41;4892340;29;20425;-65
2022/12/22 11:41:44;;;;;;;;;;;;;;;12.22;90.59;100618.28;4894075;29;20465;-66
2022/12/22 11:44:27;;;;;;;;;;;;;;;11.84;91.54;100622.50;4893468;29;19915;-64
2022/12/22 11:47:02;;;;;;;;;;;;;;;11.12;93.28;100627.50;4894849;29;19915;-65
2022/12/22 11:49:30;;;;;;;;;;;;;;;10.72;95.22;100619.97;4893761;29;19919;-64
2022/12/22 11:52:14;;;;;;;;;;;;;;;10.17;97.71;100630.31;4893643;29;20272;-64
2022/12/22 11:54:57;;;;;;;;;;;;;;;9.86;100.00;100638.53;4891886;29;19931;-65
2022/12/22 11:57:32;;;;;;;;;;;;;;;9.75;100.00;100625.63;4913583;29;19986;-65
2022/12/22 12:00:11;;;;;;;;;;;;;;;9.57;100.00;100620.97;4901077;29;19923;-64
2022/12/22 12:02:43;;;;;;;;;;;;;;;9.47;100.00;100623.41;4886540;29;19951;-64
2022/12/22 12:05:14;;;;;;;;;;;;;;;9.39;100.00;100617.41;4886575;29;20315;-66
2022/12/22 12:07:44;;;;;;;;;;;;;;;9.30;100.00;100625.94;4890004;29;19919;-65
2022/12/22 12:10:22;;;;;;;;;;;;;;;9.40;100.00;100619.09;4891630;29;20326;-65
2022/12/22 12:12:51;;;;;;;;;;;;;;;9.31;100.00;100613.91;4891951;29;19991;-65
2022/12/22 12:15:37;;;;;;;;;;;;;;;9.33;100.00;100606.31;4892327;29;19920;-65
2022/12/22 12:18:25;;;;;;;;;;;;;;;9.26;100.00;100608.25;4894280;29;19915;-65
2022/12/22 12:21:05;;;;;;;;;;;;;;;9.14;100.00;100604.63;4891636;29;19919;-65
2022/12/22 12:23:42;;;;;;;;;;;;;;;9.19;100.00;100596.56;4892896;29;19915;-65
2022/12/22 12:26:13;;;;;;;;;;;;;;;9.21;100.00;100597.16;4892452;29;19948;-65
2022/12/22 12:28:57;;;;;;;;;;;;;;;9.38;100.00;100583.69;4892133;29;19922;-66
2022/12/22 12:31:27;;;;;;;;;;;;;;;10.01;100.00;100574.19;4874517;29;20287;-65
2022/12/22 12:33:59;;;;;;;;;;;;;;;10.49;100.00;100578.75;4874525;29;19943;-65
2022/12/22 12:36:24;;;;;;;;;;;;;;;11.05;99.53;100574.56;4874726;29;19919;-65
2022/12/22 12:39:02;;;;;;;;;;;;;;;11.75;94.50;100568.91;4873924;29;19915;-65
2022/12/22 12:41:37;;;;;;;;;;;;;;;12.50;90.61;100575.25;4894219;29;19941;-65
2022/12/22 12:44:03;;;;;;;;;;;;;;;12.65;88.59;100567.22;4894916;29;19970;-66
2022/12/22 12:46:47;;;;;;;;;;;;;;;11.98;90.08;100578.19;4886439;29;19915;-66
2022/12/22 12:49:31;;;;;;;;;;;;;;;11.24;93.06;100565.09;4886172;29;19927;-65
2022/12/22 12:51:56;;;;;;;;;;;;;;;10.70;94.65;100577.34;4876880;29;19919;-66
2022/12/22 12:54:41;;;;;;;;;;;;;;;10.36;95.69;100572.41;4874378;29;20006;-66
2022/12/22 12:57:22;;;;;;;;;;;;;;;9.94;98.54;100576.22;4874667;29;19923;-66
2022/12/22 12:59:47;;;;;;;;;;;;;;;9.74;100.00;100573.75;4883324;29;20484;-65
2022/12/22 13:02:28;;;;;;;;;;;;;;;9.61;100.00;100574.75;4892414;29;19927;-65
2022/12/22 13:05:13;;;;;;;;;;;;;;;9.44;100.00;100576.47;4874962;29;19926;-66
2022/12/22 13:07:57;;;;;;;;;;;;;;;9.37;100.00;100568.28;4884159;29;19925;-65
2022/12/22 13:10:24;;;;;;;;;;;;;;;9.24;100.00;100569.31;4892477;29;19923;-66
2022/12/22 13:12:50;;;;;;;;;;;;;;;9.22;100.00;100570.59;4893501;29;19915;-66
2022/12/22 13:15:35;;;;;;;;;;;;;;;9.29;100.00;100576.84;4893753;29;19915;-65
2022/12/22 13:18:27;;;;;;;;;;;;;;;9.25;100.00;100561.91;4891306;29;19919;-65
2022/12/22 13:20:54;;;;;;;;;;;;;;;9.39;100.00;100559.88;4861376;29;20028;-65
2022/12/22 13:23:19;;;;;;;;;;;;;;;9.47;100.00;100575.97;4874433;29;19931;-66
2022/12/22 13:25:55;;;;;;;;;;;;;;;9.49;100.00;100569.22;4872319;29;19923;-66
2022/12/22 13:28:22;;;;;;;;;;;;;;;9.46;100.00;100574.31;4888520;29;20294;-66
2022/12/22 13:30:48;;;;;;;;;;;;;;;9.31;100.00;100575.53;4892851;29;19920;-65
2022/12/22 13:33:15;;;;;;;;;;;;;;;9.34;100.00;100566.88;4893249;29;19923;-66
2022/12/22 13:35:41;;;;;;;;;;;;;;;9.25;100.00;100573.72;4892581;29;19915;-66
2022/12/22 13:38:24;;;;;;;;;;;;;;;9.14;100.00;100569.00;4892138;29;20394;-65
2022/12/22 13:40:49;;;;;;;;;;;;;;;9.09;100.00;100572.44;4891834;29;20507;-66
2022/12/22 13:43:16;;;;;;;;;;;;;;;9.04;100.00;100563.22;4892893;29;19954;-65
2022/12/22 13:45:46;;;;;;;;;;;;;;;9.02;100.00;100559.84;4892826;29;19923;-66
2022/12/22 13:48:19;;;;;;;;;;;;;;;9.05;100.00;100560.25;4892014;29;19926;-66
2022/12/22 13:50:47;;;;;;;;;;;;;;;9.01;100.00;100548.06;4892963;29;19915;-66
2022/12/22 13:53:15;;;;;;;;;;;;;;;9.02;100.00;100544.28;4892108;29;20374;-67
2022/12/22 13:55:45;;;;;;;;;;;;;;;8.93;100.00;100555.75;4892602;29;19921;-64
2022/12/22 13:58:44;;;;;;;;;;;;;;;8.96;100.00;100547.06;4891129;29;19923;-66
2022/12/22 14:01:09;;;;;;;;;;;;;;;8.95;100.00;100537.19;4861185;29;20260;-66
2022/12/22 14:03:34;;;;;;;;;;;;;;;8.98;100.00;100542.22;4892219;29;19926;-64
2022/12/22 14:06:00;;;;;;;;;;;;;;;8.97;100.00;100532.31;4892967;29;20006;-65
2022/12/22 14:08:25;;;;;;;;;;;;;;;9.03;100.00;100524.03;4874593;29;20334;-66
2022/12/22 14:10:51;;;;;;;;;;;;;;;8.92;100.00;100523.94;4873729;29;20384;-66
2022/12/22 14:13:18;;;;;;;;;;;;;;;8.94;100.00;100522.66;4874000;29;19984;-66
2022/12/22 14:15:44;;;;;;;;;;;;;;;8.93;100.00;100531.94;4874028;29;19937;-65
2022/12/22 14:18:19;;;;;;;;;;;;;;;8.92;100.00;100526.66;4888151;29;19919;-67
2022/12/22 14:20:45;;;;;;;;;;;;;;;8.90;100.00;100517.84;4893227;29;19922;-66
2022/12/22 14:23:22;;;;;;;;;;;;;;;8.84;100.00;100519.59;4892714;29;20267;-66
2022/12/22 14:25:49;;;;;;;;;;;;;;;8.77;100.00;100519.69;4892382;29;20442;-64
2022/12/22 14:28:23;;;;;;;;;;;;;;;8.74;100.00;100509.19;4891114;29;19919;-67
2022/12/22 14:30:53;;;;;;;;;;;;;;;8.72;100.00;100516.78;4892535;29;19970;-66
2022/12/22 14:33:27;;;;;;;;;;;;;;;8.72;100.00;100508.59;4893349;29;19922;-67
2022/12/22 14:36:11;;;;;;;;;;;;;;;8.68;100.00;100498.31;4893141;29;19915;-67
2022/12/22 14:38:38;;;;;;;;;;;;;;;8.61;100.00;100498.34;4891323;29;19941;-66
2022/12/22 14:41:08;;;;;;;;;;;;;;;8.58;100.00;100505.13;4893769;29;20060;-64
2022/12/22 14:43:33;;;;;;;;;;;;;;;8.54;100.00;100495.69;4879631;29;19927;-66
2022/12/22 14:46:01;;;;;;;;;;;;;;;8.58;100.00;100487.88;4872834;29;20341;-64
2022/12/22 14:48:28;;;;;;;;;;;;;;;8.49;100.00;100486.50;4893031;29;20206;-66
2022/12/22 14:50:54;;;;;;;;;;;;;;;8.46;100.00;100485.03;4895332;29;19916;-66
2022/12/22 14:53:42;;;;;;;;;;;;;;;8.46;100.00;100484.19;4895015;29;19923;-66
2022/12/22 14:56:10;;;;;;;;;;;;;;;8.44;100.00;100478.13;4887404;29;19919;-66
2022/12/22 14:58:37;;;;;;;;;;;;;;;8.45;100.00;100471.59;4895032;29;19922;-65
2022/12/22 15:01:21;;;;;;;;;;;;;;;8.44;100.00;100475.38;4893884;29;19925;-67
2022/12/22 15:04:00;;;;;;;;;;;;;;;8.43;100.00;100479.19;4894727;29;20381;-64
2022/12/22 15:06:25;;;;;;;;;;;;;;;8.37;100.00;100488.31;4893993;29;19915;-67
2022/12/22 15:08:54;;;;;;;;;;;;;;;8.36;100.00;100487.44;4893470;29;19942;-67
2022/12/22 15:11:20;;;;;;;;;;;;;;;8.33;100.00;100485.97;4895782;29;19920;-67
2022/12/22 15:13:46;;;;;;;;;;;;;;;8.30;100.00;100480.94;4895472;29;19916;-66
2022/12/22 15:16:13;;;;;;;;;;;;;;;8.25;100.00;100477.22;4887475;29;20375;-66
2022/12/22 15:18:38;;;;;;;;;;;;;;;8.19;100.00;100480.84;4891760;29;20005;-67
2022/12/22 15:21:03;;;;;;;;;;;;;;;8.13;100.00;100474.38;4895626;29;20071;-66
2022/12/22 15:23:29;;;;;;;;;;;;;;;8.07;100.00;100465.16;4893584;29;19924;-66
2022/12/22 15:25:54;;;;;;;;;;;;;;;8.05;100.00;100466.44;4887209;29;19923;-65
2022/12/22 15:28:19;;;;;;;;;;;;;;;8.08;100.00;100463.28;4880317;29;20024;-66
2022/12/22 15:30:44;;;;;;;;;;;;;;;8.00;100.00;100447.97;4876176;29;19930;-66
2022/12/22 15:33:13;;;;;;;;;;;;;;;7.97;100.00;100453.06;4891112;29;19919;-66
2022/12/22 15:35:39;;;;;;;;;;;;;;;7.96;100.00;100448.66;4895890;29;20010;-67
2022/12/22 15:38:08;;;;;;;;;;;;;;;7.96;100.00;100451.41;4895776;29;20418;-67
2022/12/22 15:40:34;;;;;;;;;;;;;;;7.94;100.00;100445.28;4895012;29;19919;-66
2022/12/22 15:42:59;;;;;;;;;;;;;;;7.90;100.00;100446.78;4895358;29;19926;-66
2022/12/22 15:45:24;;;;;;;;;;;;;;;7.89;100.00;100443.22;4895914;29;19951;-67
2022/12/22 15:47:52;;;;;;;;;;;;;;;7.88;100.00;100441.56;4895790;29;19938;-66
2022/12/22 15:50:22;;;;;;;;;;;;;;;7.86;100.00;100440.97;4894451;29;19963;-67
2022/12/22 15:52:50;;;;;;;;;;;;;;;7.85;100.00;100441.16;4894537;29;19919;-67
2022/12/22 15:55:15;;;;;;;;;;;;;;;7.83;100.00;100437.81;4895245;29;19955;-67
2022/12/22 15:57:41;;;;;;;;;;;;;;;7.90;100.00;100424.94;4895072;29;19958;-66
2022/12/22 16:00:08;;;;;;;;;;;;;;;7.83;100.00;100418.69;4895114;29;19962;-67
2022/12/22 16:02:34;;;;;;;;;;;;;;;7.82;100.00;100417.03;4890936;29;19919;-67
2022/12/22 16:04:59;;;;;;;;;;;;;;;7.82;100.00;100414.28;4895317;29;19919;-66
2022/12/22 16:07:24;;;;;;;;;;;;;;;7.85;100.00;100413.81;4894880;29;19920;-67
2022/12/22 16:09:49;;;;;;;;;;;;;;;7.79;100.00;100405.44;4893317;29;19922;-65
2022/12/22 16:12:16;;;;;;;;;;;;;;;7.76;100.00;100405.91;4895136;29;20324;-66
2022/12/22 16:14:43;;;;;;;;;;;;;;;7.80;100.00;100400.81;4895393;29;19915;-65
2022/12/22 16:17:15;;;;;;;;;;;;;;;7.77;100.00;100393.91;4895558;29;19954;-67
2022/12/22 16:19:40;;;;;;;;;;;;;;;7.79;100.00;100386.31;4888322;29;19923;-66
2022/12/22 16:22:06;;;;;;;;;;;;;;;7.79;100.00;100383.59;4895344;29;19978;-66
2022/12/22 16:24:34;;;;;;;;;;;;;;;7.80;100.00;100389.88;4894521;29;19926;-66